Time;durP1;ratioP1;P1;durP2;ratioP2;P2;SDS_P1;SDS_P2;PMS_P1;PMS_P2;Temp;Humidity;BMP_temperature;BMP_pressure;BME280_temperature;BME280_humidity;BME280_pressure;Samples;Min_cycle;Max_cycle;Signal;HPM_P1;HPM_P2
2021/07/24 00:01:51;;;;;;;21.38;14.20;;;;;;;15.53;89.16;98058.75;5070832;28;20024;-86
2021/07/24 00:04:21;;;;;;;16.77;11.85;;;;;;;15.51;89.49;98052.69;5107078;28;20081;-86
2021/07/24 00:06:47;;;;;;;17.95;11.98;;;;;;;15.34;89.59;98055.22;5072534;28;20077;-86
2021/07/24 00:09:14;;;;;;;14.98;11.23;;;;;;;15.33;89.85;98048.22;5088783;28;20031;-86
2021/07/24 00:11:41;;;;;;;16.75;12.40;;;;;;;15.32;89.92;98049.16;5089324;28;20299;-86
2021/07/24 00:14:11;;;;;;;18.67;12.15;;;;;;;15.20;90.43;98055.03;5107214;28;20022;-86
2021/07/24 00:16:37;;;;;;;16.58;11.18;;;;;;;15.34;90.32;98052.56;5089410;28;20043;-86
2021/07/24 00:19:03;;;;;;;18.77;11.48;;;;;;;15.36;90.25;98042.75;5089234;28;20016;-86
2021/07/24 00:21:28;;;;;;;18.88;11.68;;;;;;;15.36;89.89;98039.25;5088906;28;20019;-86
2021/07/24 00:24:06;;;;;;;16.77;11.25;;;;;;;15.43;89.96;98023.00;5089986;28;20039;-86
2021/07/24 00:26:34;;;;;;;16.17;10.82;;;;;;;15.33;89.72;98000.47;5089281;28;20032;-86
2021/07/24 00:29:15;;;;;;;15.55;10.85;;;;;;;15.33;89.85;97997.84;5071818;28;20046;-86
2021/07/24 00:31:44;;;;;;;20.27;11.27;;;;;;;15.35;89.75;97988.03;5090613;28;20224;-86
2021/07/24 00:34:10;;;;;;;15.23;10.82;;;;;;;15.33;89.54;97986.34;5072157;28;20034;-86
2021/07/24 00:36:38;;;;;;;16.77;11.43;;;;;;;15.32;89.58;97988.16;5088678;28;20105;-86
2021/07/24 00:39:06;;;;;;;15.48;10.20;;;;;;;15.30;89.87;97976.75;5088620;28;20089;-86
2021/07/24 00:41:46;;;;;;;17.20;12.13;;;;;;;15.22;89.90;97978.06;5047940;28;20087;-86
2021/07/24 00:44:27;;;;;;;20.05;11.48;;;;;;;15.16;90.06;97971.28;5106167;28;20091;-86
2021/07/24 00:46:57;;;;;;;18.85;11.00;;;;;;;15.26;89.85;97969.91;5106076;28;20039;-86
2021/07/24 00:49:31;;;;;;;18.52;11.73;;;;;;;15.21;89.64;97966.59;5088154;28;20027;-86
2021/07/24 00:51:59;;;;;;;15.93;11.48;;;;;;;15.20;90.12;97962.25;5073275;28;20192;-86
2021/07/24 00:54:28;;;;;;;22.55;12.10;;;;;;;15.28;89.79;97957.41;5070640;28;20091;-86
2021/07/24 00:56:59;;;;;;;17.23;12.43;;;;;;;15.14;90.08;97943.97;5089279;28;20028;-86
2021/07/24 00:59:26;;;;;;;19.83;11.38;;;;;;;15.25;89.74;97957.56;5070792;28;20032;-86
2021/07/24 01:01:57;;;;;;;17.98;11.13;;;;;;;15.39;89.72;97971.06;5069619;28;20031;-86
2021/07/24 01:04:23;;;;;;;18.73;11.98;;;;;;;15.37;89.81;97977.38;5070775;23;20047;-66
2021/07/24 01:07:09;;;;;;;19.48;11.55;;;;;;;15.32;89.87;97969.59;5110015;28;20050;-66
2021/07/24 01:09:39;;;;;;;20.85;13.25;;;;;;;15.31;90.07;97957.25;5115584;28;20306;-66
2021/07/24 01:12:24;;;;;;;15.77;11.38;;;;;;;15.38;90.14;97964.03;5096355;28;20131;-66
2021/07/24 01:14:54;;;;;;;19.60;11.48;;;;;;;15.46;90.36;97972.47;5087552;28;20028;-66
2021/07/24 01:17:21;;;;;;;23.02;12.45;;;;;;;15.51;90.33;97974.91;5114346;28;20020;-66
2021/07/24 01:19:48;;;;;;;19.55;12.77;;;;;;;15.64;90.09;97987.47;5102074;28;20036;-66
2021/07/24 01:22:15;;;;;;;17.63;12.10;;;;;;;15.75;89.95;97990.44;5100657;28;20024;-66
2021/07/24 01:24:41;;;;;;;18.88;11.65;;;;;;;15.74;89.58;97983.44;5120650;28;20039;-66
2021/07/24 01:27:09;;;;;;;14.65;10.57;;;;;;;15.73;89.88;97987.03;5117148;28;20059;-66
2021/07/24 01:29:36;;;;;;;20.55;12.35;;;;;;;15.63;89.77;97975.13;5117026;28;20075;-66
2021/07/24 01:32:03;;;;;;;17.80;11.95;;;;;;;15.58;89.92;97971.88;5100107;28;20024;-66
2021/07/24 01:34:30;;;;;;;19.15;12.02;;;;;;;15.74;89.64;97980.78;5103101;28;20016;-66
2021/07/24 01:36:57;;;;;;;21.67;11.50;;;;;;;15.75;89.57;97979.84;5115456;28;20039;-66
2021/07/24 01:39:24;;;;;;;21.30;11.15;;;;;;;15.78;89.41;97969.06;5117376;28;20024;-66
2021/07/24 01:42:05;;;;;;;17.83;11.32;;;;;;;15.81;89.47;97963.59;5100816;28;20016;-66
2021/07/24 01:44:32;;;;;;;15.70;10.43;;;;;;;15.85;89.54;97964.31;5088000;28;20090;-66
2021/07/24 01:46:59;;;;;;;17.63;11.48;;;;;;;15.82;89.73;97959.16;5088617;28;20031;-66
2021/07/24 01:55:08;;;;;;;19.42;11.45;;;;;;;15.94;89.64;97970.00;5102490;28;20035;-66
2021/07/24 01:57:36;;;;;;;15.60;10.90;;;;;;;16.02;89.50;97975.78;5101460;28;20024;-66
2021/07/24 02:00:10;;;;;;;19.50;10.43;;;;;;;16.11;89.24;97967.31;5116800;28;20218;-66
2021/07/24 02:02:41;;;;;;;17.73;11.48;;;;;;;16.08;89.52;97951.59;5105618;28;20025;-66
2021/07/24 02:05:30;;;;;;;16.35;11.95;;;;;;;16.04;89.51;97939.38;5096784;28;20079;-66
2021/07/24 02:08:20;;;;;;;15.98;11.25;;;;;;;16.07;89.65;97965.78;5100381;28;20029;-66
2021/07/24 02:11:06;;;;;;;17.58;11.13;;;;;;;16.20;89.53;97976.63;5077782;28;20048;-67
2021/07/24 02:13:33;;;;;;;17.08;11.75;;;;;;;16.21;89.47;97973.91;5095435;28;20084;-67
2021/07/24 02:15:59;;;;;;;15.73;11.13;;;;;;;16.15;89.27;97976.88;5103932;28;20043;-67
2021/07/24 02:18:29;;;;;;;21.45;11.50;;;;;;;16.10;89.54;97949.69;5104170;28;20222;-67
2021/07/24 02:20:55;;;;;;;21.77;12.32;;;;;;;16.06;89.95;97948.16;5103870;28;20032;-67
2021/07/24 02:23:24;;;;;;;22.30;13.80;;;;;;;16.08;90.17;97956.91;5103844;28;20028;-67
2021/07/24 02:25:50;;;;;;;18.90;12.30;;;;;;;16.13;89.70;97944.22;5084809;28;20242;-67
2021/07/24 02:28:24;;;;;;;23.70;12.52;;;;;;;16.06;89.74;97936.66;5083669;28;20025;-67
2021/07/24 02:30:49;;;;;;;16.70;11.85;;;;;;;16.13;89.82;97949.53;5083968;28;20107;-67
2021/07/24 02:33:17;;;;;;;15.25;11.35;;;;;;;16.17;89.74;97952.91;5084052;28;20035;-67
2021/07/24 02:35:45;;;;;;;25.65;12.60;;;;;;;16.13;89.63;97962.81;5084947;28;20024;-67
2021/07/24 02:38:12;;;;;;;18.42;12.00;;;;;;;16.09;89.91;97958.59;5089302;28;20269;-67
2021/07/24 02:40:41;;;;;;;21.83;12.25;;;;;;;16.25;89.37;97994.03;5103751;28;20035;-67
2021/07/24 02:43:06;;;;;;;18.83;12.38;;;;;;;16.24;89.99;98010.94;5087018;28;20031;-67
2021/07/24 02:45:47;;;;;;;20.77;11.48;;;;;;;16.30;90.32;98042.44;5105076;28;20051;-67
2021/07/24 02:48:14;;;;;;;20.02;13.50;;;;;;;16.49;89.88;98061.84;5103623;28;20028;-67
2021/07/24 02:50:40;;;;;;;21.30;14.10;;;;;;;16.56;89.65;98049.97;5104732;28;20054;-67
2021/07/24 02:53:36;;;;;;;23.02;13.50;;;;;;;16.50;89.60;98039.66;5089020;28;20032;-67
2021/07/24 02:56:02;;;;;;;18.13;13.27;;;;;;;16.61;89.57;98047.09;5103584;28;20257;-67
2021/07/24 02:58:33;;;;;;;24.92;13.45;;;;;;;16.65;89.26;98044.16;5087474;28;20216;-67
2021/07/24 03:01:11;;;;;;;19.95;11.95;;;;;;;16.72;88.67;98064.19;5103757;28;20233;-67
2021/07/24 03:03:40;;;;;;;21.88;12.45;;;;;;;16.71;88.92;98059.78;5103498;28;20048;-67
2021/07/24 03:06:26;;;;;;;17.73;11.95;;;;;;;16.68;88.74;98038.69;5103463;28;20034;-67
2021/07/24 03:08:52;;;;;;;19.15;12.23;;;;;;;16.64;88.49;98049.56;5097181;28;20058;-67
2021/07/24 03:11:20;;;;;;;20.00;12.48;;;;;;;16.56;89.04;98034.03;5084214;28;20012;-67
2021/07/24 03:13:47;;;;;;;17.05;11.98;;;;;;;16.63;89.22;98035.44;5066619;28;20028;-67
2021/07/24 03:16:12;;;;;;;17.27;11.93;;;;;;;16.62;89.46;98044.34;5082993;28;20024;-67
2021/07/24 03:18:38;;;;;;;23.27;13.25;;;;;;;16.62;89.39;98057.63;5066166;28;20020;-67
2021/07/24 03:21:04;;;;;;;19.52;12.30;;;;;;;16.62;89.51;98064.72;5082969;28;20082;-67
2021/07/24 03:23:30;;;;;;;16.90;11.88;;;;;;;16.50;90.33;98058.28;5066415;28;20227;-67
2021/07/24 03:25:57;;;;;;;18.77;12.57;;;;;;;16.56;89.84;98049.97;5083193;28;20082;-67
2021/07/24 03:28:39;;;;;;;18.70;12.90;;;;;;;16.49;89.64;98061.84;5083335;28;20021;-67
2021/07/24 03:31:05;;;;;;;19.85;12.27;;;;;;;16.51;89.57;98052.00;5081825;28;20227;-67
2021/07/24 03:33:34;;;;;;;18.65;11.32;;;;;;;16.46;89.63;98048.72;5083104;28;20131;-67
2021/07/24 03:36:03;;;;;;;18.08;12.52;;;;;;;16.44;89.43;98055.94;5082786;28;20032;-67
2021/07/24 03:38:32;;;;;;;19.77;12.30;;;;;;;16.49;89.33;98064.50;5066701;28;20021;-67
2021/07/24 03:40:58;;;;;;;19.05;11.85;;;;;;;16.54;89.72;98051.84;5082723;28;20028;-67
2021/07/24 03:43:26;;;;;;;18.92;12.43;;;;;;;16.52;89.84;98069.66;5083031;28;20031;-67
2021/07/24 03:45:52;;;;;;;20.75;12.73;;;;;;;16.55;89.82;98080.13;5097382;28;20310;-67
2021/07/24 03:48:38;;;;;;;16.95;12.55;;;;;;;16.47;89.73;98116.88;5102895;28;20027;-67
2021/07/24 03:51:03;;;;;;;18.70;12.77;;;;;;;16.45;89.76;98142.63;5103065;28;20099;-67
2021/07/24 03:53:30;;;;;;;21.15;13.13;;;;;;;16.43;89.96;98143.66;5086381;28;20087;-67
2021/07/24 03:55:58;;;;;;;19.20;13.45;;;;;;;16.41;90.21;98170.25;5101472;28;20211;-67
2021/07/24 03:58:23;;;;;;;19.25;13.90;;;;;;;16.39;90.40;98182.75;5102727;28;20081;-67
2021/07/24 04:00:50;;;;;;;19.30;13.80;;;;;;;16.43;90.28;98195.00;5102785;28;20035;-67
2021/07/24 04:03:18;;;;;;;25.63;14.38;;;;;;;16.38;90.36;98204.06;5102823;28;20027;-67
2021/07/24 04:06:08;;;;;;;21.45;14.27;;;;;;;16.48;90.20;98231.94;5102861;28;20027;-67
2021/07/24 04:08:34;;;;;;;23.58;12.98;;;;;;;16.52;90.20;98207.81;5102898;28;20057;-67
2021/07/24 04:11:05;;;;;;;21.70;13.05;;;;;;;16.55;90.10;98197.03;5104058;28;20030;-67
2021/07/24 04:13:32;;;;;;;21.65;12.00;;;;;;;16.51;90.02;98226.47;5084575;28;20020;-67
2021/07/24 04:15:59;;;;;;;19.27;12.95;;;;;;;16.43;90.17;98202.97;5085942;28;20033;-67
2021/07/24 04:18:30;;;;;;;20.20;12.82;;;;;;;16.48;89.94;98258.50;5082572;28;20199;-67
2021/07/24 04:20:55;;;;;;;22.77;13.20;;;;;;;16.53;89.96;98229.94;5082416;28;20224;-67
2021/07/24 04:23:21;;;;;;;19.95;12.90;;;;;;;16.54;89.90;98275.03;5083466;28;20023;-67
2021/07/24 04:25:48;;;;;;;25.05;13.75;;;;;;;16.55;89.82;98250.16;5066121;28;20212;-67
2021/07/24 04:28:13;;;;;;;19.23;13.07;;;;;;;16.60;89.68;98295.09;5082341;28;20021;-67
2021/07/24 04:30:40;;;;;;;17.80;12.27;;;;;;;16.59;89.77;98246.44;5082544;28;20215;-67
2021/07/24 04:33:06;;;;;;;26.50;14.10;;;;;;;16.53;89.83;98251.19;5082527;28;20020;-67
2021/07/24 04:35:32;;;;;;;19.75;13.40;;;;;;;16.63;89.56;98241.81;5065911;28;20250;-67
2021/07/24 04:37:58;;;;;;;18.60;13.25;;;;;;;16.79;89.62;98256.94;5065356;28;20024;-67
2021/07/24 04:40:45;;;;;;;19.05;12.60;;;;;;;17.08;88.49;98255.44;5089025;28;20296;-67
2021/07/24 04:43:15;;;;;;;16.50;11.95;;;;;;;17.42;86.30;98259.88;5098644;28;20032;-67
2021/07/24 04:45:48;;;;;;;16.38;10.85;;;;;;;17.74;84.71;98245.75;5097273;28;20320;-67
2021/07/24 04:48:34;;;;;;;18.75;11.55;;;;;;;18.01;83.91;98257.56;5092067;28;20019;-67
2021/07/24 04:51:00;;;;;;;14.48;9.50;;;;;;;18.30;82.72;98256.81;5091867;28;20084;-67
2021/07/24 04:53:26;;;;;;;17.67;10.52;;;;;;;18.65;81.67;98263.69;5087916;28;20349;-67
2021/07/24 04:56:12;;;;;;;22.90;10.80;;;;;;;18.91;81.10;98271.03;5091304;28;20341;-67
2021/07/24 04:58:49;;;;;;;16.52;9.50;;;;;;;19.09;80.39;98259.31;5088674;28;20027;-67
2021/07/24 05:01:18;;;;;;;16.25;10.00;;;;;;;19.37;79.30;98248.75;5078716;28;20379;-67
2021/07/24 05:04:01;;;;;;;13.93;8.88;;;;;;;19.63;78.05;98271.16;5097767;28;20028;-67
2021/07/24 05:06:28;;;;;;;14.80;9.35;;;;;;;19.94;77.26;98281.69;5090035;28;20043;-67
2021/07/24 05:08:54;;;;;;;18.50;9.18;;;;;;;20.31;75.94;98281.97;5071667;28;20306;-67
2021/07/24 05:11:20;;;;;;;15.18;9.50;;;;;;;20.62;74.58;98281.72;5101977;28;20050;-67
2021/07/24 05:13:47;;;;;;;16.58;8.82;;;;;;;20.54;74.40;98281.34;5083898;28;20020;-67
2021/07/24 05:16:32;;;;;;;16.52;9.15;;;;;;;20.55;75.07;98269.69;5103080;28;20020;-67
2021/07/24 05:19:00;;;;;;;14.82;8.85;;;;;;;20.60;74.91;98278.25;5076372;28;20082;-67
2021/07/24 05:21:31;;;;;;;15.40;9.85;;;;;;;20.52;76.14;98264.56;5101413;28;20039;-67
2021/07/24 05:23:57;;;;;;;19.05;9.55;;;;;;;20.36;76.92;98263.81;5083750;28;20351;-67
2021/07/24 05:26:46;;;;;;;16.48;9.15;;;;;;;20.29;78.18;98267.00;5106548;28;20020;-67
2021/07/24 05:29:27;;;;;;;18.23;9.73;;;;;;;20.21;79.18;98259.44;5105579;28;20027;-67
2021/07/24 05:31:53;;;;;;;18.20;10.82;;;;;;;20.19;79.27;98261.34;5105166;28;20227;-67
2021/07/24 05:34:19;;;;;;;20.00;9.77;;;;;;;20.26;78.47;98276.06;5105152;28;20058;-67
2021/07/24 05:36:52;;;;;;;18.05;10.65;;;;;;;20.21;79.14;98279.97;5106073;28;20039;-67
2021/07/24 05:39:38;;;;;;;17.27;10.43;;;;;;;20.30;78.29;98290.06;5102786;28;20031;-67
2021/07/24 05:42:05;;;;;;;18.17;10.43;;;;;;;20.24;78.86;98291.31;5085719;28;20021;-67
2021/07/24 05:44:31;;;;;;;15.38;10.23;;;;;;;20.26;78.88;98300.13;5067996;28;20028;-67
2021/07/24 05:46:59;;;;;;;15.63;10.25;;;;;;;20.28;78.95;98314.22;5084570;28;20033;-67
2021/07/24 05:49:25;;;;;;;17.73;11.10;;;;;;;20.30;78.70;98320.34;5071273;28;20024;-67
2021/07/24 05:51:51;;;;;;;18.02;10.30;;;;;;;20.29;78.81;98332.00;5069088;28;20051;-67
2021/07/24 05:54:18;;;;;;;15.75;10.63;;;;;;;20.31;78.63;98324.72;5089795;28;20024;-67
2021/07/24 05:57:05;;;;;;;19.92;10.65;;;;;;;20.33;78.71;98322.81;5076109;28;20245;-67
2021/07/24 05:59:33;;;;;;;21.13;10.60;;;;;;;20.26;79.18;98340.22;5086855;28;20027;-67
2021/07/24 06:02:19;;;;;;;19.63;9.77;;;;;;;20.28;79.05;98340.94;5083177;28;20350;-67
2021/07/24 06:04:47;;;;;;;15.65;9.35;;;;;;;20.27;79.44;98336.56;5084049;28;20044;-67
2021/07/24 06:07:14;;;;;;;15.25;9.63;;;;;;;20.33;78.93;98333.53;5066902;28;20054;-67
2021/07/24 06:09:41;;;;;;;25.95;9.93;;;;;;;20.31;78.90;98324.72;5085949;28;20020;-67
2021/07/24 06:12:08;;;;;;;17.17;9.63;;;;;;;20.22;80.46;98327.13;5073749;28;20036;-67
2021/07/24 06:14:35;;;;;;;22.23;9.85;;;;;;;20.21;81.20;98338.75;5085233;28;20029;-67
2021/07/24 06:17:21;;;;;;;18.83;9.93;;;;;;;20.16;81.58;98325.72;5069211;28;20082;-67
2021/07/24 06:19:58;;;;;;;20.15;10.10;;;;;;;20.11;82.19;98338.44;5066803;28;20032;-68
2021/07/24 06:22:24;;;;;;;18.30;9.55;;;;;;;19.98;83.11;98310.78;5067656;28;20311;-67
2021/07/24 06:24:49;;;;;;;18.95;9.77;;;;;;;19.96;83.74;98302.00;5082859;28;20052;-67
2021/07/24 06:27:16;;;;;;;17.45;10.43;;;;;;;19.81;84.66;98288.75;5083503;28;20020;-67
2021/07/24 06:29:43;;;;;;;22.30;9.70;;;;;;;19.73;84.88;98266.97;5082767;28;20257;-66
2021/07/24 06:32:13;;;;;;;16.25;9.85;;;;;;;19.65;86.13;98253.25;5066830;28;20193;-67
2021/07/24 06:34:39;;;;;;;20.77;9.75;;;;;;;19.68;86.13;98242.38;5075237;28;20023;-67
2021/07/24 06:37:05;;;;;;;23.60;10.32;;;;;;;19.54;88.07;98224.53;5091882;28;20020;-67
2021/07/24 06:39:30;;;;;;;17.88;9.88;;;;;;;19.38;89.40;98207.75;5094790;28;20030;-67
2021/07/24 06:41:57;;;;;;;20.70;10.15;;;;;;;19.37;89.71;98227.38;5104094;28;20367;-67
2021/07/24 06:44:27;;;;;;;17.25;9.68;;;;;;;19.39;89.53;98214.78;5098836;28;20344;-67
2021/07/24 06:47:08;;;;;;;19.40;9.77;;;;;;;19.34;89.43;98210.69;5088767;28;20028;-67
2021/07/24 06:49:34;;;;;;;15.65;10.50;;;;;;;19.35;89.38;98202.59;5084411;28;20084;-67
2021/07/24 06:52:00;;;;;;;16.77;9.77;;;;;;;19.36;89.73;98217.66;5066826;28;20024;-67
2021/07/24 06:54:33;;;;;;;16.27;9.80;;;;;;;19.37;90.46;98216.72;5084392;28;20062;-67
2021/07/24 06:57:00;;;;;;;20.27;10.50;;;;;;;19.37;90.75;98218.50;5079312;28;20070;-67
2021/07/24 06:59:26;;;;;;;19.80;11.15;;;;;;;19.37;90.93;98215.84;5083131;28;20231;-67
2021/07/24 07:01:52;;;;;;;22.17;11.02;;;;;;;19.40;91.92;98229.00;5084101;28;20309;-67
2021/07/24 07:04:18;;;;;;;20.80;10.95;;;;;;;19.43;91.24;98232.34;5103265;28;20070;-67
2021/07/24 07:06:49;;;;;;;16.33;11.35;;;;;;;19.48;91.19;98229.38;5099041;28;20032;-67
2021/07/24 07:09:20;;;;;;;16.50;10.43;;;;;;;19.53;91.35;98321.59;5069833;28;20031;-66
2021/07/24 07:11:48;;;;;;;19.00;10.53;;;;;;;19.60;90.66;98288.25;5074235;28;20039;-66
2021/07/24 07:14:13;;;;;;;14.43;9.88;;;;;;;19.64;90.73;98288.94;5096879;28;20024;-66
2021/07/24 07:16:40;;;;;;;18.77;11.05;;;;;;;19.65;90.71;98274.59;5074053;28;20192;-66
2021/07/24 07:19:26;;;;;;;15.38;10.40;;;;;;;19.71;90.68;98264.41;5091898;28;20032;-66
2021/07/24 07:21:53;;;;;;;26.52;12.15;;;;;;;19.79;90.64;98256.78;5086835;28;20024;-66
2021/07/24 07:24:22;;;;;;;16.95;9.80;;;;;;;19.92;90.36;98225.69;5103119;28;20023;-66
2021/07/24 07:26:50;;;;;;;16.65;10.35;;;;;;;20.04;90.04;98240.94;5087154;28;20028;-66
2021/07/24 07:29:16;;;;;;;19.75;10.23;;;;;;;20.22;89.94;98271.84;5104143;28;20069;-66
2021/07/24 07:31:42;;;;;;;19.02;10.63;;;;;;;20.28;89.61;98260.78;5086151;28;20032;-66
2021/07/24 07:34:08;;;;;;;18.38;10.57;;;;;;;20.28;89.80;98260.78;5086577;28;20032;-66
2021/07/24 07:36:37;;;;;;;15.13;10.55;;;;;;;20.29;89.78;98251.81;5086151;28;20085;-66
2021/07/24 07:39:07;;;;;;;16.65;9.65;;;;;;;20.27;89.16;98236.81;5102927;28;20070;-66
2021/07/24 07:41:33;;;;;;;19.58;9.98;;;;;;;20.42;88.79;98244.72;5086525;28;20024;-66
2021/07/24 07:44:00;;;;;;;15.90;10.18;;;;;;;20.49;88.56;98246.03;5103233;28;20039;-66
2021/07/24 07:46:25;;;;;;;17.75;11.20;;;;;;;20.53;88.97;98233.34;5104015;28;20024;-66
2021/07/24 07:48:51;;;;;;;16.23;10.00;;;;;;;20.55;89.10;98232.25;5104259;28;20079;-66
2021/07/24 07:51:21;;;;;;;15.98;9.18;;;;;;;20.59;89.09;98238.25;5103208;28;20024;-66
2021/07/24 07:53:50;;;;;;;21.55;9.65;;;;;;;20.70;89.09;98222.38;5102858;28;20028;-67
2021/07/24 07:56:16;;;;;;;11.40;7.18;;;;;;;20.87;86.90;98225.63;5086083;28;20036;-67
2021/07/24 07:58:43;;;;;;;12.48;7.35;;;;;;;20.93;86.63;98222.56;5102728;28;20032;-67
2021/07/24 08:01:13;;;;;;;13.40;8.00;;;;;;;20.93;86.79;98222.56;5104135;28;20028;-67
2021/07/24 08:03:41;;;;;;;14.05;7.60;;;;;;;20.86;85.93;98215.91;5086527;28;20343;-67
2021/07/24 08:06:07;;;;;;;12.50;7.00;;;;;;;20.97;84.98;98213.38;5102842;28;20028;-67
2021/07/24 08:08:33;;;;;;;12.80;7.60;;;;;;;21.10;85.63;98208.91;5085893;28;20086;-67
2021/07/24 08:10:59;;;;;;;14.65;7.47;;;;;;;21.71;84.13;98226.09;5104080;28;20368;-67
2021/07/24 08:13:30;;;;;;;14.00;6.57;;;;;;;22.53;80.96;98228.13;5102954;28;20069;-67
2021/07/24 08:15:56;;;;;;;14.85;6.22;;;;;;;23.37;77.53;98242.31;5086859;28;20035;-67
2021/07/24 08:18:42;;;;;;;18.13;7.07;;;;;;;24.15;73.63;98257.59;5105379;28;20219;-67
2021/07/24 08:21:24;;;;;;;10.32;5.38;;;;;;;24.18;71.90;98241.22;5107586;28;20016;-67
2021/07/24 08:23:50;;;;;;;22.25;5.45;;;;;;;24.20;72.39;98219.59;5089980;28;20028;-67
2021/07/24 08:26:16;;;;;;;11.45;5.65;;;;;;;23.93;73.72;98209.19;5089550;28;20028;-67
2021/07/24 08:28:41;;;;;;;8.90;5.40;;;;;;;23.90;72.38;98198.66;5106330;28;20277;-67
2021/07/24 08:31:14;;;;;;;12.68;5.75;;;;;;;23.50;75.33;98177.75;5107701;28;20043;-65
2021/07/24 08:33:42;;;;;;;12.52;6.22;;;;;;;23.47;74.95;98181.53;5106623;28;20038;-65
2021/07/24 08:36:08;;;;;;;12.77;7.03;;;;;;;23.33;75.94;98256.94;5106244;28;20032;-65
2021/07/24 08:38:53;;;;;;;11.15;6.70;;;;;;;23.16;75.57;98228.66;5106113;28;20101;-65
2021/07/24 08:41:40;;;;;;;14.18;6.63;;;;;;;22.76;76.18;98218.38;5106278;28;20027;-65
2021/07/24 08:44:06;;;;;;;13.98;6.70;;;;;;;22.89;74.80;98224.53;5106078;28;20028;-65
2021/07/24 08:46:33;;;;;;;12.52;7.30;;;;;;;22.77;75.29;98193.25;5106033;28;20227;-65
2021/07/24 08:49:00;;;;;;;12.77;7.57;;;;;;;22.79;76.31;98197.53;5106271;28;20027;-65
2021/07/24 08:51:31;;;;;;;11.80;6.28;;;;;;;22.80;75.91;98195.69;5105918;28;20028;-65
2021/07/24 08:53:58;;;;;;;11.60;6.32;;;;;;;22.56;76.21;98186.81;5089606;28;20028;-65
2021/07/24 08:56:29;;;;;;;13.40;7.07;;;;;;;22.40;77.23;98186.22;5105902;28;20024;-65
2021/07/24 08:59:00;;;;;;;12.13;6.35;;;;;;;22.34;78.37;98189.34;5105838;28;20327;-65
2021/07/24 09:01:50;;;;;;;15.15;6.47;;;;;;;22.30;78.88;98199.41;5103962;28;20222;-65
2021/07/24 09:04:32;;;;;;;14.30;6.88;;;;;;;22.40;77.56;98199.63;5106535;28;20095;-65
2021/07/24 09:07:02;;;;;;;11.90;6.60;;;;;;;22.48;78.43;98205.25;5106691;28;20024;-66
2021/07/24 09:09:29;;;;;;;12.18;6.68;;;;;;;22.41;79.07;98201.31;5105890;28;20028;-66
2021/07/24 09:11:55;;;;;;;11.75;6.32;;;;;;;22.56;78.62;98210.97;5105803;28;20028;-66
2021/07/24 09:14:21;;;;;;;16.63;6.90;;;;;;;22.61;79.40;98219.50;5106581;28;20042;-66
2021/07/24 09:16:50;;;;;;;11.95;7.22;;;;;;;22.88;78.32;98233.56;5106510;28;20031;-66
2021/07/24 09:19:36;;;;;;;12.90;6.25;;;;;;;23.10;76.77;98239.03;5105342;28;20035;-66
2021/07/24 09:22:01;;;;;;;12.30;6.40;;;;;;;23.26;76.87;98244.97;5105332;28;20027;-66
2021/07/24 09:24:27;;;;;;;12.73;6.35;;;;;;;23.57;78.75;98246.16;5106399;28;20365;-66
2021/07/24 09:26:52;;;;;;;10.82;6.25;;;;;;;23.66;75.77;98227.47;5106349;28;20315;-66
2021/07/24 09:29:20;;;;;;;14.02;6.10;;;;;;;23.67;74.87;98222.97;5106243;28;20024;-66
2021/07/24 09:31:47;;;;;;;12.65;6.57;;;;;;;23.96;75.25;98225.09;5106272;28;20044;-66
2021/07/24 09:34:14;;;;;;;12.40;6.35;;;;;;;23.93;73.49;98214.56;5106144;28;20024;-66
2021/07/24 09:36:41;;;;;;;12.45;6.15;;;;;;;24.05;73.57;98208.22;5106393;28;20020;-66
2021/07/24 09:39:09;;;;;;;14.68;6.05;;;;;;;24.27;75.13;98224.31;5106041;28;20028;-66
2021/07/24 09:41:36;;;;;;;12.27;6.45;;;;;;;24.44;75.30;98209.50;5106034;28;20028;-66
2021/07/24 09:44:02;;;;;;;11.55;6.22;;;;;;;24.59;73.65;98341.00;5106000;28;20024;-66
2021/07/24 09:46:27;;;;;;;12.93;6.68;;;;;;;25.41;72.62;98342.34;5106249;28;20031;-66
2021/07/24 09:48:54;;;;;;;14.73;6.45;;;;;;;25.96;70.53;98328.56;5105943;28;20023;-66
2021/07/24 09:54:42;;;;;;;11.45;5.55;;;;;;;26.89;65.39;98309.47;5105864;28;20035;-66
2021/07/24 09:57:07;;;;;;;14.55;4.85;;;;;;;26.85;65.70;98303.47;5105694;28;20020;-66
2021/07/24 09:59:34;;;;;;;14.60;5.03;;;;;;;26.74;63.89;98294.63;5105640;28;20038;-66
2021/07/24 10:02:05;;;;;;;10.73;4.38;;;;;;;26.14;64.37;98265.84;5105672;28;20035;-66
2021/07/24 10:05:20;;;;;;;9.07;4.78;;;;;;;26.37;66.85;98288.06;5093554;28;20048;-66
2021/07/24 10:07:46;;;;;;;10.38;5.15;;;;;;;26.06;64.36;98272.88;5085292;28;20069;-66
2021/07/24 10:10:12;;;;;;;8.55;4.88;;;;;;;25.56;64.95;98265.59;5085236;28;20020;-66
2021/07/24 10:12:37;;;;;;;8.63;4.35;;;;;;;25.58;65.18;98263.59;5085282;28;20089;-66
2021/07/24 10:15:06;;;;;;;11.75;5.30;;;;;;;25.87;65.71;98264.63;5085103;28;20024;-66
2021/07/24 10:17:31;;;;;;;11.45;4.88;;;;;;;25.81;64.34;98252.53;5084952;28;20368;-66
2021/07/24 10:19:57;;;;;;;9.93;4.82;;;;;;;25.54;65.10;98235.19;5085272;28;20047;-66
2021/07/24 10:22:23;;;;;;;9.20;4.28;;;;;;;25.09;67.57;98213.84;5085020;28;20336;-66
2021/07/24 10:24:48;;;;;;;9.55;4.68;;;;;;;24.95;66.38;98202.53;5085229;28;20039;-66
2021/07/24 10:27:22;;;;;;;13.57;4.88;;;;;;;24.83;67.13;98215.19;5084887;28;20290;-66
2021/07/24 10:29:52;;;;;;;9.63;4.28;;;;;;;24.80;67.81;98212.75;5084889;28;20246;-66
2021/07/24 10:32:25;;;;;;;12.83;5.43;;;;;;;24.71;68.88;98202.75;5084864;28;20032;-66
2021/07/24 10:34:51;;;;;;;10.27;4.63;;;;;;;24.64;68.97;98222.22;5085032;28;20024;-66
2021/07/24 10:37:35;;;;;;;8.38;4.90;;;;;;;24.47;68.76;98210.13;5084633;28;20028;-66
2021/07/24 10:40:27;;;;;;;11.02;4.20;;;;;;;24.32;70.94;98222.13;5084160;28;20029;-66
2021/07/24 10:42:54;;;;;;;7.50;3.90;;;;;;;24.10;72.98;98208.69;5084747;28;20219;-66
2021/07/24 10:45:32;;;;;;;8.48;4.45;;;;;;;24.24;71.50;98219.22;5084801;28;20402;-66
2021/07/24 10:48:16;;;;;;;9.48;4.65;;;;;;;24.05;72.17;98210.06;5084498;28;20024;-66
2021/07/24 10:50:53;;;;;;;10.43;5.10;;;;;;;24.21;70.95;98219.47;5083319;28;20051;-66
2021/07/24 10:53:22;;;;;;;8.50;4.70;;;;;;;24.23;72.63;98214.81;5084419;28;20311;-66
2021/07/24 10:55:49;;;;;;;9.30;4.70;;;;;;;24.42;72.49;98217.72;5084454;28;20020;-66
2021/07/24 10:58:19;;;;;;;10.65;4.97;;;;;;;24.59;70.91;98236.03;5084282;28;20315;-66
2021/07/24 11:00:54;;;;;;;8.25;4.60;;;;;;;24.88;69.98;98247.97;5084953;28;20310;-66
2021/07/24 11:03:32;;;;;;;10.55;4.78;;;;;;;25.07;69.54;98231.13;5084325;28;20361;-66
2021/07/24 11:05:58;;;;;;;9.18;4.47;;;;;;;25.45;66.81;98235.97;5090945;28;20134;-66
2021/07/24 11:09:02;;;;;;;12.85;4.53;;;;;;;25.94;65.53;98228.06;5104464;28;20022;-66
2021/07/24 11:11:40;;;;;;;8.55;4.53;;;;;;;26.69;64.42;98240.19;5104702;28;20020;-66
2021/07/24 11:14:06;;;;;;;8.02;4.47;;;;;;;27.21;63.21;98256.88;5104390;28;20234;-66
2021/07/24 11:17:05;;;;;;;12.05;4.00;;;;;;;27.49;62.00;98238.97;5104424;28;20083;-66
2021/07/24 11:19:54;;;;;;;10.63;4.50;;;;;;;27.94;57.78;98271.69;5104290;28;20031;-66
2021/07/24 11:22:29;;;;;;;10.10;4.65;;;;;;;27.05;62.05;98223.34;5084904;28;20044;-66
2021/07/24 11:24:55;;;;;;;7.30;4.32;;;;;;;27.03;62.70;98225.31;5104280;28;20255;-66
2021/07/24 11:27:26;;;;;;;8.48;4.85;;;;;;;26.73;62.59;98670.97;5104196;28;20023;-66
2021/07/24 11:30:07;;;;;;;;;;;;;;;26.67;62.86;98628.31;5104564;28;20020;-66
2021/07/24 11:32:41;;;;;;;7.38;4.00;;;;;;;26.72;61.11;98563.94;5104186;28;20246;-66
2021/07/24 11:35:08;;;;;;;11.25;4.95;;;;;;;26.89;61.08;98439.97;5104480;28;20024;-66
2021/07/24 11:37:36;;;;;;;9.93;4.68;;;;;;;26.80;62.03;98392.16;5103941;28;20269;-66
2021/07/24 11:40:03;;;;;;;11.80;4.32;;;;;;;26.88;62.33;98378.84;5104118;28;20051;-66
2021/07/24 11:42:28;;;;;;;11.57;4.35;;;;;;;27.00;62.03;98387.69;5104026;28;20253;-66
2021/07/24 11:44:53;;;;;;;8.50;4.32;;;;;;;26.88;59.35;98350.97;5104065;28;20064;-66
2021/07/24 11:47:19;;;;;;;8.20;5.13;;;;;;;26.63;59.51;98313.63;5104104;28;20023;-66